createdAt,value
2022-10-17T00:03:30.664Z,10.45
2022-10-17T00:07:48.194Z,9.93
2022-10-17T00:12:05.847Z,10.82
2022-10-17T00:16:25.929Z,21.13
2022-10-17T00:20:43.413Z,9.60
2022-10-17T00:25:00.975Z,14.68
2022-10-17T00:29:18.406Z,9.18
2022-10-17T00:33:36.087Z,12.13
2022-10-17T00:37:53.312Z,13.95
2022-10-17T00:42:13.642Z,23.98
2022-10-17T00:46:39.068Z,12.02
2022-10-17T00:50:56.522Z,13.15
2022-10-17T00:55:31.901Z,11.93
2022-10-17T00:59:53.256Z,21.55
2022-10-17T01:04:10.739Z,9.70
2022-10-17T01:08:28.147Z,11.93
2022-10-17T01:12:54.761Z,10.88
2022-10-17T01:17:26.086Z,13.70
2022-10-17T01:21:48.134Z,13.95
2022-10-17T01:26:26.025Z,13.38
2022-10-17T01:30:43.768Z,18.27
2022-10-17T01:35:30.570Z,22.75
2022-10-17T01:40:05.841Z,15.10
2022-10-17T01:44:52.793Z,9.60
2022-10-17T01:49:13.299Z,8.85
2022-10-17T01:53:35.812Z,11.00
2022-10-17T01:58:02.111Z,10.75
2022-10-17T02:02:20.969Z,10.88
2022-10-17T02:11:04.504Z,11.05
2022-10-17T02:15:41.572Z,11.80
2022-10-17T02:20:25.241Z,18.63
2022-10-17T02:24:42.505Z,8.95
2022-10-17T02:29:13.219Z,13.27
2022-10-17T02:33:52.925Z,8.68
2022-10-17T02:42:29.545Z,14.48
2022-10-17T02:46:56.113Z,12.95
2022-10-17T02:51:19.568Z,13.80
2022-10-17T02:55:43.506Z,11.52
2022-10-17T03:00:02.845Z,16.02
2022-10-17T03:04:20.605Z,12.02
2022-10-17T03:13:01.279Z,11.52
2022-10-17T03:17:18.593Z,8.38
2022-10-17T03:21:37.781Z,11.95
2022-10-17T03:25:55.120Z,9.77
2022-10-17T03:30:12.566Z,9.82
2022-10-17T03:34:30.044Z,11.40
2022-10-17T03:38:49.254Z,13.05
2022-10-17T03:43:06.636Z,11.63
2022-10-17T03:47:24.428Z,9.07
2022-10-17T03:51:41.895Z,11.90
2022-10-17T03:56:10.391Z,10.20
2022-10-17T04:00:27.898Z,12.40
2022-10-17T04:04:45.220Z,8.88
2022-10-17T04:09:03.262Z,11.15
2022-10-17T04:13:20.609Z,12.23
2022-10-17T04:17:38.298Z,7.60
2022-10-17T04:21:55.978Z,11.88
2022-10-17T04:26:13.417Z,9.88
2022-10-17T04:30:30.776Z,11.75
2022-10-17T04:34:50.943Z,12.55
2022-10-17T04:39:08.653Z,10.93
2022-10-17T04:43:26.524Z,13.90
2022-10-17T04:47:43.883Z,14.18
2022-10-17T04:52:01.255Z,13.25
2022-10-17T04:56:21.519Z,10.93
2022-10-17T05:00:39.064Z,12.05
2022-10-17T05:04:56.484Z,23.50
2022-10-17T05:09:14.385Z,15.63
2022-10-17T05:13:32.802Z,14.95
2022-10-17T05:17:55.567Z,13.60
2022-10-17T05:22:12.912Z,10.40
2022-10-17T05:26:32.220Z,18.40
2022-10-17T05:30:49.765Z,32.17
2022-10-17T05:35:07.566Z,28.15
2022-10-17T05:39:26.273Z,12.40
2022-10-17T05:48:01.193Z,15.70
2022-10-17T05:52:18.926Z,21.17
2022-10-17T05:56:36.355Z,17.23
2022-10-17T06:00:58.824Z,13.88
2022-10-17T06:05:16.642Z,12.32
2022-10-17T06:09:34.790Z,14.73
2022-10-17T06:13:52.232Z,8.65
2022-10-17T06:18:10.545Z,11.70
2022-10-17T06:22:28.391Z,10.93
2022-10-17T06:26:47.674Z,17.63
2022-10-17T06:31:07.754Z,14.48
2022-10-17T06:35:25.899Z,8.88
2022-10-17T06:39:43.886Z,6.78
2022-10-17T06:44:01.395Z,9.27
2022-10-17T06:48:18.796Z,8.88
2022-10-17T06:52:36.517Z,12.18
2022-10-17T06:56:54.589Z,8.82
2022-10-17T07:01:13.549Z,12.67
2022-10-17T07:09:48.124Z,7.30
2022-10-17T07:14:06.374Z,11.68
2022-10-17T07:18:24.078Z,7.93
2022-10-17T07:22:41.541Z,6.10
2022-10-17T07:26:58.973Z,5.20
2022-10-17T07:31:18.235Z,4.28
2022-10-17T07:35:38.465Z,9.73
2022-10-17T07:39:56.714Z,4.85
2022-10-17T07:44:15.691Z,7.13
2022-10-17T07:48:33.255Z,10.05
2022-10-17T07:52:51.073Z,5.47
2022-10-17T07:57:09.112Z,2.55
2022-10-17T08:01:28.489Z,1.80
2022-10-17T08:05:47.337Z,5.68
2022-10-17T08:10:05.413Z,3.97
2022-10-17T08:14:22.838Z,5.00
2022-10-17T08:18:41.890Z,4.72
2022-10-17T08:22:59.276Z,5.03
2022-10-17T08:27:21.557Z,2.88
2022-10-17T08:31:39.102Z,4.05
2022-10-17T08:36:06.040Z,5.60
2022-10-17T08:40:27.690Z,4.60
2022-10-17T08:45:07.287Z,7.43
2022-10-17T08:49:54.704Z,2.80
2022-10-17T08:54:17.002Z,3.17
2022-10-17T08:58:36.853Z,3.08
2022-10-17T09:03:12.180Z,1.88
2022-10-17T09:07:44.632Z,2.80
2022-10-17T09:12:02.006Z,1.90
2022-10-17T09:16:19.305Z,3.25
2022-10-17T09:20:46.137Z,6.82
2022-10-17T09:25:10.224Z,5.85
2022-10-17T09:29:36.130Z,3.28
2022-10-17T09:33:57.903Z,2.60
2022-10-17T09:38:20.978Z,1.92
2022-10-17T09:42:39.538Z,2.28
2022-10-17T09:47:06.340Z,5.63
2022-10-17T09:51:25.943Z,1.00
2022-10-17T09:55:48.377Z,2.22
2022-10-17T10:00:07.711Z,2.35
2022-10-17T10:04:30.319Z,1.90
2022-10-17T10:09:05.220Z,3.45
2022-10-17T10:13:26.627Z,2.42
2022-10-17T10:17:44.540Z,2.65
2022-10-17T10:22:14.822Z,3.10
2022-10-17T10:26:45.854Z,0.82
2022-10-17T10:31:07.187Z,3.10
2022-10-17T10:35:34.623Z,2.08
2022-10-17T10:40:02.999Z,2.75
2022-10-17T10:44:25.429Z,1.48
2022-10-17T10:48:52.048Z,3.13
2022-10-17T10:53:30.768Z,9.85
2022-10-17T10:57:56.016Z,1.75
2022-10-17T11:02:31.458Z,1.08
2022-10-17T11:06:52.997Z,0.90
2022-10-17T11:11:30.926Z,0.82
2022-10-17T11:16:28.479Z,1.58
2022-10-17T11:21:10.016Z,2.92
2022-10-17T11:25:33.525Z,3.22
2022-10-17T11:29:52.498Z,2.08
2022-10-17T11:34:20.392Z,2.50
2022-10-17T11:38:51.673Z,2.93
2022-10-17T11:43:18.934Z,4.70
2022-10-17T11:47:49.765Z,0.80
2022-10-17T11:52:37.763Z,3.20
2022-10-17T11:57:37.299Z,2.50
2022-10-17T12:02:04.718Z,2.30
2022-10-17T12:06:40.139Z,1.15
2022-10-17T12:11:08.318Z,1.98
2022-10-17T12:15:26.277Z,3.25
2022-10-17T12:19:43.749Z,2.45
2022-10-17T12:24:01.286Z,2.63
2022-10-17T12:28:18.654Z,1.80
2022-10-17T12:33:00.022Z,1.57
2022-10-17T12:37:15.435Z,0.88
2022-10-17T12:41:38.793Z,2.47
2022-10-17T12:46:04.500Z,2.80
2022-10-17T12:51:30.769Z,4.43
2022-10-17T12:55:39.301Z,2.38
2022-10-17T12:59:58.734Z,3.30
2022-10-17T13:04:17.907Z,2.53
2022-10-17T13:08:43.060Z,2.53
2022-10-17T13:13:13.189Z,3.33
2022-10-17T13:17:31.053Z,3.72
2022-10-17T13:22:06.519Z,1.80
2022-10-17T13:26:27.381Z,3.28
2022-10-17T13:30:48.568Z,2.10
2022-10-17T13:35:11.148Z,3.88
2022-10-17T13:39:52.324Z,2.65
2022-10-17T13:44:19.183Z,2.22
2022-10-17T13:48:38.507Z,3.45
2022-10-17T13:53:09.239Z,3.78
2022-10-17T13:57:31.594Z,2.85
2022-10-17T14:01:50.071Z,2.55
2022-10-17T14:06:15.047Z,5.05
2022-10-17T14:10:36.781Z,4.68
2022-10-17T14:15:11.194Z,11.85
2022-10-17T14:19:36.054Z,3.58
2022-10-17T14:24:13.726Z,4.00
2022-10-17T14:28:31.367Z,7.45
2022-10-17T14:32:48.883Z,8.35
2022-10-17T14:37:32.167Z,3.00
2022-10-17T14:41:51.106Z,3.88
2022-10-17T14:46:16.138Z,1.98
2022-10-17T14:50:36.163Z,3.17
2022-10-17T14:54:54.409Z,3.25
2022-10-17T14:59:21.403Z,2.85
2022-10-17T15:03:44.492Z,2.72
2022-10-17T15:08:01.956Z,4.88
2022-10-17T15:12:22.859Z,4.50
2022-10-17T15:16:40.135Z,4.72
2022-10-17T15:21:04.842Z,5.38
2022-10-17T15:25:25.114Z,5.00
2022-10-17T15:29:42.376Z,7.63
2022-10-17T15:34:00.116Z,5.15
2022-10-17T15:38:18.420Z,4.57
2022-10-17T15:42:35.814Z,5.78
2022-10-17T15:46:55.698Z,2.17
2022-10-17T15:51:13.214Z,8.90
2022-10-17T15:55:31.997Z,9.98
2022-10-17T16:04:12.729Z,10.10
2022-10-17T16:08:30.231Z,9.40
2022-10-17T16:12:49.868Z,9.05
2022-10-17T16:17:09.159Z,7.78
2022-10-17T16:21:32.437Z,4.88
2022-10-17T16:25:50.346Z,4.00
2022-10-17T16:30:08.412Z,3.78
2022-10-17T16:34:25.832Z,4.47
2022-10-17T16:38:43.370Z,9.05
2022-10-17T16:43:00.889Z,6.75
2022-10-17T16:47:19.056Z,9.75
2022-10-17T16:51:36.614Z,6.70
2022-10-17T16:56:04.391Z,5.68
2022-10-17T17:00:21.905Z,7.95
2022-10-17T17:04:39.458Z,4.43
2022-10-17T17:08:57.349Z,10.52
2022-10-17T17:13:14.998Z,6.53
2022-10-17T17:17:48.793Z,8.43
2022-10-17T17:22:08.065Z,8.95
2022-10-17T17:26:27.973Z,9.88
2022-10-17T17:30:45.955Z,5.63
2022-10-17T17:35:03.494Z,5.68
2022-10-17T17:39:20.916Z,8.60
2022-10-17T17:43:38.378Z,7.80
2022-10-17T17:47:55.763Z,7.07
2022-10-17T17:52:13.199Z,9.27
2022-10-17T17:56:31.086Z,10.23
2022-10-17T18:00:48.582Z,9.85
2022-10-17T18:05:06.517Z,10.45
2022-10-17T18:09:24.122Z,7.32
2022-10-17T18:13:41.684Z,9.63
2022-10-17T18:17:58.921Z,8.30
2022-10-17T18:22:16.304Z,8.05
2022-10-17T18:26:34.450Z,8.48
2022-10-17T18:30:51.773Z,10.90
2022-10-17T18:35:09.735Z,7.38
2022-10-17T18:39:27.457Z,9.48
2022-10-17T18:43:47.672Z,12.02
2022-10-17T18:48:05.440Z,8.77
2022-10-17T18:52:24.978Z,12.70
2022-10-17T18:56:42.440Z,10.65
2022-10-17T19:01:09.900Z,10.52
2022-10-17T19:05:27.336Z,9.35
2022-10-17T19:09:44.710Z,12.20
2022-10-17T19:14:05.484Z,11.43
2022-10-17T19:18:22.779Z,10.52
2022-10-17T19:22:40.288Z,13.45
2022-10-17T19:27:02.599Z,14.43
2022-10-17T19:31:26.270Z,12.23
2022-10-17T19:35:44.278Z,11.82
2022-10-17T19:40:01.616Z,12.20
2022-10-17T19:44:19.064Z,13.95
2022-10-17T19:48:37.891Z,8.65
2022-10-17T19:52:56.389Z,10.95
2022-10-17T19:57:16.299Z,16.55
2022-10-17T20:01:36.619Z,11.05
2022-10-17T20:05:54.064Z,10.70
2022-10-17T20:10:12.906Z,11.15
2022-10-17T20:14:30.330Z,14.45
2022-10-17T20:18:49.413Z,11.25
2022-10-17T20:23:06.913Z,12.43
2022-10-17T20:27:27.695Z,11.82
2022-10-17T20:31:46.497Z,12.50
2022-10-17T20:36:11.423Z,14.45
2022-10-17T20:40:36.121Z,12.95
2022-10-17T20:44:53.818Z,11.98
2022-10-17T20:49:14.212Z,11.88
2022-10-17T20:53:37.119Z,11.95
2022-10-17T20:57:55.418Z,14.88
2022-10-17T21:02:13.918Z,13.30
2022-10-17T21:06:31.650Z,12.27
2022-10-17T21:10:49.192Z,14.85
2022-10-17T21:15:07.255Z,11.23
2022-10-17T21:19:24.832Z,12.67
2022-10-17T21:23:44.785Z,15.60
2022-10-17T21:28:02.704Z,17.45
2022-10-17T21:32:32.153Z,11.48
2022-10-17T21:36:57.593Z,12.73
2022-10-17T21:41:16.443Z,12.05
2022-10-17T21:45:36.332Z,15.70
2022-10-17T21:49:53.678Z,13.52
2022-10-17T21:54:12.253Z,12.10
2022-10-17T21:58:30.091Z,14.23
2022-10-17T22:02:48.269Z,14.60
2022-10-17T22:07:05.587Z,18.90
2022-10-17T22:11:28.575Z,16.70
2022-10-17T22:15:46.141Z,17.30
2022-10-17T22:20:03.733Z,16.80
2022-10-17T22:28:41.294Z,18.10
2022-10-17T22:32:58.856Z,19.45
2022-10-17T22:37:16.145Z,20.33
2022-10-17T22:41:33.883Z,22.02
2022-10-17T22:46:00.907Z,20.35
2022-10-17T22:50:20.600Z,23.42
2022-10-17T22:54:37.958Z,20.13
2022-10-17T22:58:55.558Z,18.48
2022-10-17T23:03:12.947Z,24.23
2022-10-17T23:07:30.534Z,21.13
2022-10-17T23:11:47.843Z,25.80
2022-10-17T23:16:05.596Z,20.75
2022-10-17T23:20:23.075Z,20.63
2022-10-17T23:24:40.627Z,26.83
2022-10-17T23:28:57.931Z,25.30
2022-10-17T23:33:15.822Z,22.05
2022-10-17T23:37:33.770Z,25.63
2022-10-17T23:41:51.053Z,24.73
2022-10-17T23:46:08.797Z,26.48
2022-10-17T23:50:26.178Z,34.67
2022-10-17T23:54:43.587Z,27.40
2022-10-17T23:59:01.578Z,23.75
